Les articles d'ExpertMaritime.pro..


Votre expert maritime indépendant Xavier Braive est disponible sur la zone de Meschers-sur-Gironde - Port de Meschers - 17132

(Charente-Maritime - Poitou-Charentes)


Voir plan
Situation :

Le Port de Meschers, situé sur la rive droite de la Gironde près de son embouchure, est abrité par tous temps.

Il comprend :

- Un avant-chenal de 250 m de long, large de 8 m qui fait un angle de 8° W avec le Nord vrai, creusé à la cote + 0,50 m ; le vieux havre d’échouage ou « chenal » équipé de quai, cales en 1861.

- Un bassin d’échouage créé 1985 de 121 places sur pontons flottants, creuse à la cote + 1 m.

- Un bassin à flot mis en service en 1990, de 121 places à l’origine, 116 aujourd’hui (on y a placé des bateaux plus grands que prévu), en arrière d’une porte-écluse, T.E. 2,50 m ; le seuil de l’écluse est à la cote + 2 m ; les portes ouvrent quand la mer atteint le niveau + 3,50 m, avec 1,50 m d’eau sur le seuil (les cotes se réfèrent au niveau 0 des cartes marines).
Lat. 45° 33?, 3 N – Long. 00° 56?, 6 W ; carte SHOM 7029.
Distances : LE VERDON : 3,5 M. – ROYAN : 5 M. – PAUILLAC : 23 M. – BORDEAUX : 48 M.

- Une zone de mouillage, ouverte d’Avril à Septembre, de 22 corps morts, sur les vases à l’est du chenal d’accès.

Pratique :

Ville de Meschers : Location des anneaux.
Capitainerie, Tél.: 05.46.02.56.89 – VHF canal 9 –
n° de Fax 05 46 02 34 77 - GSM 06 15 11 23 10
Monsieur KERDUDOU est le capitaine assermenté du port.

SAUVETAGE :
CROSS ETEL, Tél.: O2 .97.553.535.
De juin à septembre Poste de Secours – Plage des Nonnes,
Tél. : 05.46.02.72.92, situé à 1 mille au nord du Port.
Météo affichée à la Capitainerie.
Météo locale sur la zone Port de Meschers
Heure (UTC) Dir.Vent Vit.Vent (nds) Force (Bft) T°min T°max P (mb) Hum.Rel.
25/05/2024 - 18:00:00 au 25/05/2024 - 21:00:00 299° (WNW) 11 4 16°C 19°C 1016 80 %
25/05/2024 - 21:00:00 au 26/05/2024 - 00:00:00 265° (W) 12 4 15°C 18°C 1016 82 %
26/05/2024 - 00:00:00 au 26/05/2024 - 03:00:00 258° (WSW) 12 4 16°C 17°C 1016 87 %
26/05/2024 - 03:00:00 au 26/05/2024 - 06:00:00 270° (W) 10 3 15°C 15°C 1018 83 %
26/05/2024 - 06:00:00 au 26/05/2024 - 09:00:00 258° (WSW) 11 4 17°C 17°C 1019 75 %
26/05/2024 - 09:00:00 au 26/05/2024 - 12:00:00 257° (WSW) 11 4 18°C 18°C 1020 72 %
26/05/2024 - 12:00:00 au 26/05/2024 - 15:00:00 271° (W) 11 4 17°C 17°C 1020 70 %
26/05/2024 - 15:00:00 au 26/05/2024 - 18:00:00 274° (W) 9 3 16°C 16°C 1021 78 %
26/05/2024 - 18:00:00 au 26/05/2024 - 21:00:00 272° (W) 8 3 14°C 14°C 1022 77 %
26/05/2024 - 21:00:00 au 27/05/2024 - 00:00:00 260° (W) 7 3 13°C 13°C 1021 78 %
27/05/2024 - 00:00:00 au 27/05/2024 - 03:00:00 271° (W) 6 2 13°C 13°C 1021 81 %
27/05/2024 - 03:00:00 au 27/05/2024 - 06:00:00 283° (WNW) 6 2 14°C 14°C 1021 78 %
27/05/2024 - 06:00:00 au 27/05/2024 - 09:00:00 277° (W) 10 3 16°C 16°C 1022 67 %
27/05/2024 - 09:00:00 au 27/05/2024 - 12:00:00 271° (W) 11 4 16°C 16°C 1022 63 %
27/05/2024 - 12:00:00 au 27/05/2024 - 15:00:00 281° (W) 12 4 16°C 16°C 1022 63 %
27/05/2024 - 15:00:00 au 27/05/2024 - 18:00:00 295° (WNW) 10 3 15°C 15°C 1023 68 %
27/05/2024 - 18:00:00 au 27/05/2024 - 21:00:00 286° (WNW) 7 3 13°C 13°C 1024 75 %
27/05/2024 - 21:00:00 au 28/05/2024 - 00:00:00 301° (WNW) 4 2 13°C 13°C 1024 78 %
28/05/2024 - 00:00:00 au 28/05/2024 - 03:00:00 150° (SSE) 0 0 12°C 12°C 1023 80 %
28/05/2024 - 03:00:00 au 28/05/2024 - 06:00:00 148° (SSE) 4 2 13°C 13°C 1024 83 %
28/05/2024 - 06:00:00 au 28/05/2024 - 09:00:00 195° (SSW) 3 1 16°C 16°C 1024 71 %
28/05/2024 - 09:00:00 au 28/05/2024 - 12:00:00 285° (WNW) 5 2 17°C 17°C 1023 67 %
28/05/2024 - 12:00:00 au 28/05/2024 - 15:00:00 306° (NW) 6 2 17°C 17°C 1022 67 %
28/05/2024 - 15:00:00 au 28/05/2024 - 18:00:00 335° (NNW) 5 2 17°C 17°C 1021 71 %
28/05/2024 - 18:00:00 au 28/05/2024 - 21:00:00 357° (N) 5 2 14°C 14°C 1021 81 %
28/05/2024 - 21:00:00 au 29/05/2024 - 00:00:00 354° (N) 1 1 13°C 13°C 1020 80 %
29/05/2024 - 00:00:00 au 29/05/2024 - 03:00:00 240° (WSW) 3 1 13°C 13°C 1020 80 %
29/05/2024 - 03:00:00 au 29/05/2024 - 06:00:00 240° (WSW) 5 2 15°C 15°C 1020 79 %
29/05/2024 - 06:00:00 au 29/05/2024 - 09:00:00 255° (WSW) 10 3 17°C 17°C 1020 70 %
29/05/2024 - 09:00:00 au 29/05/2024 - 12:00:00 249° (WSW) 12 4 18°C 18°C 1019 70 %
29/05/2024 - 12:00:00 au 29/05/2024 - 15:00:00 259° (W) 13 4 17°C 17°C 1018 80 %
29/05/2024 - 15:00:00 au 29/05/2024 - 18:00:00 290° (WNW) 12 4 17°C 17°C 1018 87 %
29/05/2024 - 18:00:00 au 29/05/2024 - 21:00:00 290° (WNW) 12 4 15°C 15°C 1019 72 %
29/05/2024 - 21:00:00 au 30/05/2024 - 00:00:00 294° (WNW) 11 4 15°C 15°C 1018 73 %
30/05/2024 - 00:00:00 au 30/05/2024 - 03:00:00 293° (WNW) 10 3 15°C 15°C 1017 72 %
30/05/2024 - 03:00:00 au 30/05/2024 - 06:00:00 291° (WNW) 10 3 15°C 15°C 1017 79 %
30/05/2024 - 06:00:00 au 30/05/2024 - 09:00:00 275° (W) 13 4 15°C 15°C 1017 83 %
30/05/2024 - 09:00:00 au 30/05/2024 - 12:00:00 282° (WNW) 17 5 17°C 17°C 1017 72 %
30/05/2024 - 12:00:00 au 30/05/2024 - 15:00:00 298° (WNW) 16 4 17°C 17°C 1017 70 %
30/05/2024 - 15:00:00 au 30/05/2024 - 18:00:00 299° (WNW) 15 4 16°C 16°C 1018 71 %
openweathermap
Ces informations sont partiellement extraites de Wikipedia, et des sites pertinents pour cette zone. Compilation d'informations de Xavier Braive.
Xavier Braive, Expert Maritime Plaisance se déplace sur Port de Meschers, Meschers-sur-Gironde, 17132, Charente-Maritime

Welcome to Cross-Channel yachtmen !

we can deliver survey reports in english, in case of dammage or prior to buy / sell a boat in France (pre-purchase survey), and more specifically on the Atlantic coast.

Uw onafhankelijk jachtexpert

verkrijkbaar op de Atlantische kust, bij aankoop of reparatie van jachten (metaal, polyester of composiet). Rapporten in Nederlands

BRAIVE, Xavier
Xavier Braive
Expert Maritime
Nouvelle Aquitaine
France
07 64 82 25 44